Time;durP1;ratioP1;P1;durP2;ratioP2;P2;SDS_P1;SDS_P2;PMS_P1;PMS_P2;Temp;Humidity;BMP_temperature;BMP_pressure;BME280_temperature;BME280_humidity;BME280_pressure;Samples;Min_cycle;Max_cycle;Signal;HPM_P1;HPM_P2
2023/05/01 04:01:39;;;;;;;3.42;2.00;;;5.60;99.90;;;;;;5438623;23;20310;-73
2023/05/01 04:04:06;;;;;;;5.70;1.52;;;5.60;99.90;;;;;;4989869;28;20250;-73
2023/05/01 04:06:33;;;;;;;1.38;1.38;;;5.60;99.90;;;;;;4990255;28;20215;-72
2023/05/01 04:09:00;;;;;;;1.85;1.77;;;5.70;99.90;;;;;;4991590;28;20208;-73
2023/05/01 04:11:27;;;;;;;2.55;2.45;;;5.70;99.90;;;;;;4991722;28;20337;-74
2023/05/01 04:13:53;;;;;;;1.35;0.93;;;5.70;99.90;;;;;;4991804;28;20234;-72
2023/05/01 04:16:20;;;;;;;0.68;0.68;;;5.70;99.90;;;;;;4991755;28;20208;-73
2023/05/01 04:18:48;;;;;;;32.38;3.30;;;5.80;99.90;;;;;;4991031;28;20683;-73
2023/05/01 04:21:16;;;;;;;1.15;1.15;;;5.80;99.90;;;;;;4990959;28;20346;-72
2023/05/01 04:23:43;;;;;;;1.30;1.23;;;5.90;99.90;;;;;;4991121;28;20282;-73
2023/05/01 04:26:09;;;;;;;1.33;1.33;;;5.90;99.90;;;;;;4991459;28;20591;-72
2023/05/01 04:28:36;;;;;;;1.30;1.20;;;6.00;99.90;;;;;;4991788;28;20222;-72
2023/05/01 04:31:03;;;;;;;1.88;1.88;;;6.10;99.90;;;;;;4991440;28;20263;-72
2023/05/01 04:33:30;;;;;;;1.10;1.00;;;6.10;99.90;;;;;;4991207;28;20212;-70
2023/05/01 04:35:58;;;;;;;0.95;0.95;;;6.20;99.90;;;;;;4991377;28;20676;-71
2023/05/01 04:38:25;;;;;;;2.25;2.15;;;6.30;99.90;;;;;;4991311;28;20211;-72
2023/05/01 04:40:52;;;;;;;2.00;1.83;;;6.70;99.90;;;;;;4991370;28;20734;-70
2023/05/01 04:43:19;;;;;;;5.68;2.72;;;7.20;99.90;;;;;;4991067;28;20522;-72
2023/05/01 04:45:46;;;;;;;2.47;2.28;;;7.80;99.90;;;;;;4991324;28;20208;-72
2023/05/01 04:48:12;;;;;;;3.03;2.83;;;8.30;99.90;;;;;;4990599;28;20212;-69
2023/05/01 04:50:39;;;;;;;1.95;1.85;;;8.60;99.90;;;;;;4991502;28;20235;-72
2023/05/01 04:53:07;;;;;;;1.17;1.17;;;8.90;99.90;;;;;;4990473;28;20276;-72
2023/05/01 04:55:35;;;;;;;1.70;1.70;;;9.30;99.90;;;;;;4990675;28;20219;-73
2023/05/01 04:58:02;;;;;;;1.30;1.30;;;9.50;99.90;;;;;;4990766;28;20492;-72
2023/05/01 05:00:29;;;;;;;3.40;1.73;;;9.60;99.90;;;;;;4990853;28;20463;-73
2023/05/01 05:02:56;;;;;;;1.90;1.73;;;9.70;99.90;;;;;;4982528;28;20459;-73
2023/05/01 05:05:23;;;;;;;1.57;1.50;;;9.70;99.90;;;;;;4990908;28;20463;-73
2023/05/01 05:07:49;;;;;;;2.73;1.57;;;9.50;99.90;;;;;;4990418;28;20463;-73
2023/05/01 05:10:17;;;;;;;1.98;1.52;;;9.40;99.90;;;;;;4991079;28;20471;-73
2023/05/01 05:12:44;;;;;;;1.67;1.67;;;9.30;99.90;;;;;;4990650;28;20722;-73
2023/05/01 05:15:11;;;;;;;1.40;1.20;;;9.20;99.90;;;;;;4990489;28;20211;-72
2023/05/01 05:17:38;;;;;;;7.20;2.50;;;9.20;99.90;;;;;;4991253;28;20207;-72
2023/05/01 05:20:06;;;;;;;1.45;1.30;;;9.10;99.90;;;;;;4995472;28;20551;-72
2023/05/01 05:22:36;;;;;;;1.50;1.50;;;9.10;99.90;;;;;;4994152;28;20232;-72
2023/05/01 05:25:03;;;;;;;3.50;2.35;;;9.00;99.90;;;;;;4994165;28;20239;-72
2023/05/01 05:27:35;;;;;;;1.75;1.48;;;8.90;99.90;;;;;;4994800;28;20211;-72
2023/05/01 05:30:02;;;;;;;1.35;1.35;;;8.90;99.90;;;;;;4995203;28;20218;-71
2023/05/01 05:32:29;;;;;;;1.35;1.25;;;8.90;99.90;;;;;;4994713;28;20550;-72
2023/05/01 05:34:56;;;;;;;2.35;2.17;;;8.90;99.90;;;;;;4994118;28;20204;-73
2023/05/01 05:37:24;;;;;;;1.83;1.25;;;8.90;99.90;;;;;;4994447;28;20208;-74
2023/05/01 05:39:51;;;;;;;1.30;1.30;;;8.80;99.90;;;;;;4994487;28;20215;-74
2023/05/01 05:42:18;;;;;;;0.93;0.93;;;8.80;99.90;;;;;;4994210;28;20235;-74
2023/05/01 05:44:46;;;;;;;1.45;1.45;;;8.80;99.90;;;;;;4993929;28;20211;-74
2023/05/01 05:47:12;;;;;;;1.65;1.60;;;8.90;99.90;;;;;;4994606;28;20203;-76
2023/05/01 05:49:39;;;;;;;1.40;1.40;;;9.00;99.90;;;;;;4994206;28;20208;-76
2023/05/01 05:52:06;;;;;;;1.05;1.05;;;9.10;99.90;;;;;;4994116;28;20234;-74
2023/05/01 05:54:33;;;;;;;2.85;2.05;;;9.20;99.90;;;;;;4993892;28;20211;-74
2023/05/01 05:57:01;;;;;;;1.40;1.33;;;9.20;99.90;;;;;;4994094;28;20215;-74
2023/05/01 05:59:28;;;;;;;1.70;1.60;;;9.20;99.90;;;;;;4994528;28;20211;-74
2023/05/01 06:01:57;;;;;;;1.75;1.65;;;9.30;99.90;;;;;;4993816;28;20235;-74
2023/05/01 06:04:23;;;;;;;3.70;1.42;;;9.40;99.90;;;;;;4993229;28;20231;-74
2023/05/01 06:06:50;;;;;;;1.58;1.48;;;9.50;99.90;;;;;;4993880;28;20312;-73
2023/05/01 06:09:19;;;;;;;8.70;2.15;;;9.70;99.90;;;;;;4993752;28;20699;-74
2023/05/01 06:11:46;;;;;;;1.63;1.53;;;10.00;99.90;;;;;;4993633;28;20692;-74
2023/05/01 06:14:13;;;;;;;2.40;1.50;;;10.40;99.90;;;;;;4993442;28;20505;-74
2023/05/01 06:16:40;;;;;;;1.67;1.57;;;10.80;99.90;;;;;;4993764;28;20463;-74
2023/05/01 06:19:09;;;;;;;2.00;1.83;;;11.20;99.90;;;;;;4993429;28;20478;-73
2023/05/01 06:21:36;;;;;;;2.10;2.00;;;11.80;99.90;;;;;;4993721;28;20486;-74
2023/05/01 06:24:03;;;;;;;1.67;1.50;;;12.20;99.90;;;;;;4992772;28;20463;-74
2023/05/01 06:26:30;;;;;;;2.50;2.40;;;12.60;99.90;;;;;;4993578;28;20956;-74
2023/05/01 06:28:56;;;;;;;1.87;1.73;;;12.90;99.90;;;;;;4992930;28;20463;-75
2023/05/01 06:31:23;;;;;;;1.93;1.90;;;13.40;99.90;;;;;;4992725;28;20482;-75
2023/05/01 06:33:50;;;;;;;2.07;1.80;;;14.00;99.90;;;;;;4992569;28;20463;-74
2023/05/01 06:36:18;;;;;;;1.20;1.20;;;14.70;99.90;;;;;;4993131;28;20482;-75
2023/05/01 06:38:47;;;;;;;1.60;1.60;;;15.10;99.90;;;;;;4993212;28;20475;-75
2023/05/01 06:41:14;;;;;;;1.70;1.30;;;15.80;99.90;;;;;;4993564;28;20488;-74
2023/05/01 06:43:41;;;;;;;1.47;1.47;;;16.10;99.90;;;;;;4992855;28;20833;-73
2023/05/01 06:46:08;;;;;;;1.40;1.40;;;16.20;99.90;;;;;;4993568;28;20471;-74
2023/05/01 06:48:35;;;;;;;1.70;1.70;;;15.80;99.90;;;;;;4992592;28;20468;-76
2023/05/01 06:51:02;;;;;;;1.20;1.20;;;15.60;99.90;;;;;;4993063;28;20483;-72
2023/05/01 06:53:31;;;;;;;1.23;1.23;;;15.60;99.90;;;;;;4993708;28;20495;-74
2023/05/01 06:55:57;;;;;;;1.23;1.23;;;15.70;99.90;;;;;;4994217;28;20458;-75
2023/05/01 06:58:24;;;;;;;1.67;1.67;;;15.70;99.90;;;;;;4994129;28;20850;-74
2023/05/01 07:00:52;;;;;;;1.57;1.47;;;16.00;99.90;;;;;;4996371;28;20494;-75
2023/05/01 07:03:18;;;;;;;1.43;1.33;;;16.30;99.80;;;;;;5011928;28;20454;-75
2023/05/01 07:05:45;;;;;;;1.70;1.60;;;16.60;99.90;;;;;;5012739;28;20816;-74
2023/05/01 07:08:13;;;;;;;1.37;1.37;;;17.10;98.60;;;;;;5013064;28;20477;-74
2023/05/01 07:10:41;;;;;;;4.37;1.97;;;17.00;97.90;;;;;;5013403;28;20487;-76
2023/05/01 07:13:08;;;;;;;2.80;1.83;;;16.80;97.50;;;;;;5012595;28;21041;-75
2023/05/01 07:15:35;;;;;;;1.20;1.20;;;16.50;97.20;;;;;;5012987;28;20577;-75
2023/05/01 07:18:04;;;;;;;1.57;1.47;;;16.70;96.80;;;;;;5012519;28;20469;-76
2023/05/01 07:20:32;;;;;;;1.83;1.83;;;16.20;96.80;;;;;;5013150;28;20993;-76
2023/05/01 07:22:59;;;;;;;2.03;1.20;;;15.50;97.30;;;;;;5012780;28;20771;-74
2023/05/01 07:25:26;;;;;;;1.30;1.30;;;15.50;98.00;;;;;;5012408;28;20466;-74
2023/05/01 07:27:54;;;;;;;1.80;1.70;;;15.50;98.10;;;;;;5012368;28;20462;-74
2023/05/01 07:30:21;;;;;;;1.80;1.80;;;15.30;98.10;;;;;;5012911;28;20847;-74
2023/05/01 07:32:48;;;;;;;1.13;1.13;;;15.10;98.00;;;;;;5012374;28;20998;-73
2023/05/01 07:35:15;;;;;;;1.33;1.33;;;14.80;98.50;;;;;;5012443;28;20882;-74
2023/05/01 07:37:42;;;;;;;4.10;1.50;;;14.70;98.90;;;;;;5011996;28;20907;-74
2023/05/01 07:40:09;;;;;;;1.73;1.67;;;14.70;99.40;;;;;;5012506;28;20466;-75
2023/05/01 07:42:36;;;;;;;1.90;1.43;;;14.50;99.00;;;;;;5011744;28;20462;-75
2023/05/01 07:45:05;;;;;;;1.60;1.40;;;14.40;99.50;;;;;;5011578;28;20978;-75
2023/05/01 07:47:31;;;;;;;1.47;1.30;;;14.20;99.60;;;;;;5011909;28;20906;-73
2023/05/01 07:49:58;;;;;;;1.47;1.47;;;14.00;99.80;;;;;;5012118;28;20462;-74
2023/05/01 07:52:25;;;;;;;1.60;1.60;;;14.10;99.90;;;;;;5011672;28;20492;-73
2023/05/01 07:54:52;;;;;;;1.23;1.23;;;14.10;99.60;;;;;;5011018;28;21053;-75
2023/05/01 07:57:18;;;;;;;3.30;1.30;;;14.20;99.70;;;;;;5011822;28;20819;-75
2023/05/01 07:59:45;;;;;;;2.30;1.30;;;14.20;99.40;;;;;;5011373;28;20466;-74
2023/05/01 08:02:13;;;;;;;1.53;1.43;;;14.10;98.70;;;;;;5010185;28;20500;-75
2023/05/01 08:04:40;;;;;;;1.57;1.50;;;14.20;98.90;;;;;;5010716;28;20548;-75
2023/05/01 08:07:07;;;;;;;4.30;1.83;;;14.20;99.30;;;;;;5011142;28;20861;-73
2023/05/01 08:09:34;;;;;;;1.17;1.17;;;14.20;99.00;;;;;;5011592;28;20553;-75
2023/05/01 08:12:02;;;;;;;0.80;0.80;;;14.10;98.90;;;;;;5011198;28;20817;-75
2023/05/01 08:14:29;;;;;;;2.60;1.57;;;14.20;99.30;;;;;;5010593;28;20525;-75
2023/05/01 08:16:56;;;;;;;0.67;0.67;;;14.20;99.00;;;;;;5011387;28;20469;-75
2023/05/01 08:19:25;;;;;;;2.40;2.30;;;14.30;98.70;;;;;;5010638;28;20468;-75
2023/05/01 08:21:52;;;;;;;1.07;0.83;;;14.30;97.70;;;;;;5010547;28;20589;-74
2023/05/01 08:24:19;;;;;;;0.80;0.80;;;14.40;98.00;;;;;;5010375;28;20472;-74
2023/05/01 08:26:47;;;;;;;0.67;0.67;;;14.40;98.40;;;;;;5011036;28;20462;-73
2023/05/01 08:29:14;;;;;;;1.00;1.00;;;14.30;98.10;;;;;;5010946;28;20512;-73
2023/05/01 08:31:42;;;;;;;3.17;1.77;;;14.20;98.00;;;;;;5011214;28;20539;-74
2023/05/01 08:34:09;;;;;;;0.60;0.60;;;14.30;97.80;;;;;;5010970;28;20526;-73
2023/05/01 08:36:37;;;;;;;1.13;0.80;;;14.30;98.00;;;;;;5010853;28;20966;-74
2023/05/01 08:39:04;;;;;;;1.90;1.80;;;14.40;97.60;;;;;;5011923;28;20473;-74
2023/05/01 08:41:32;;;;;;;1.57;1.47;;;14.50;97.50;;;;;;5011010;28;20486;-74
2023/05/01 08:44:01;;;;;;;1.53;1.43;;;14.60;97.80;;;;;;5010797;28;20458;-75
2023/05/01 08:46:33;;;;;;;1.43;1.37;;;14.60;98.10;;;;;;5011317;28;20513;-74
2023/05/01 08:49:03;;;;;;;1.97;1.33;;;14.80;97.20;;;;;;5011009;28;20527;-74
2023/05/01 08:51:32;;;;;;;0.80;0.80;;;14.80;96.90;;;;;;5010554;28;20486;-73
2023/05/01 08:54:01;;;;;;;5.30;1.43;;;15.00;96.60;;;;;;5013359;28;20482;-73
2023/05/01 08:56:30;;;;;;;1.43;1.23;;;15.10;96.60;;;;;;5015521;28;20462;-74
2023/05/01 08:59:00;;;;;;;7.63;2.03;;;15.20;96.10;;;;;;5014824;28;20472;-72
2023/05/01 09:01:31;;;;;;;0.70;0.70;;;15.20;95.50;;;;;;5013308;28;20485;-73
2023/05/01 09:03:58;;;;;;;1.50;1.50;;;15.20;94.60;;;;;;4986695;28;20943;-74
2023/05/01 09:06:27;;;;;;;1.00;1.00;;;15.30;95.10;;;;;;4994995;28;20585;-74
2023/05/01 09:08:54;;;;;;;7.17;2.50;;;15.20;94.70;;;;;;4995797;28;20561;-73
2023/05/01 09:11:23;;;;;;;0.87;0.87;;;15.30;95.00;;;;;;4996336;28;20493;-74
2023/05/01 09:13:50;;;;;;;2.23;1.70;;;15.20;94.70;;;;;;4995235;28;20491;-73
2023/05/01 09:16:17;;;;;;;1.17;1.17;;;15.20;94.70;;;;;;4995302;28;20573;-73
2023/05/01 09:18:45;;;;;;;1.10;1.00;;;15.30;94.70;;;;;;4994870;28;20467;-73
2023/05/01 09:21:12;;;;;;;2.20;1.17;;;15.20;94.50;;;;;;4994585;28;20859;-74
2023/05/01 09:23:39;;;;;;;1.30;1.00;;;15.30;94.70;;;;;;4994481;28;20550;-74
2023/05/01 09:26:07;;;;;;;1.83;1.80;;;15.50;95.10;;;;;;4995217;28;20466;-74
2023/05/01 09:28:42;;;;;;;1.53;1.43;;;15.60;94.90;;;;;;4994891;28;20533;-74
2023/05/01 09:31:22;;;;;;;1.63;1.53;;;15.60;94.70;;;;;;4994558;28;20999;-74
2023/05/01 09:33:54;;;;;;;1.30;1.30;;;15.70;94.50;;;;;;4993357;28;20552;-73
2023/05/01 09:36:20;;;;;;;1.67;1.57;;;15.60;94.50;;;;;;4994091;28;21046;-73
2023/05/01 09:38:47;;;;;;;1.40;1.40;;;15.70;94.50;;;;;;4994454;28;20898;-75
2023/05/01 09:41:14;;;;;;;1.40;1.40;;;15.70;94.10;;;;;;4994940;28;20494;-75
2023/05/01 09:43:49;;;;;;;2.70;1.60;;;15.70;94.00;;;;;;4994074;28;20463;-74
2023/05/01 09:46:16;;;;;;;0.93;0.93;;;15.70;94.00;;;;;;4994544;28;20908;-74
2023/05/01 09:48:53;;;;;;;4.50;2.23;;;15.80;94.90;;;;;;4994310;28;20462;-74
2023/05/01 09:51:22;;;;;;;1.97;1.43;;;15.90;95.10;;;;;;4994494;28;21171;-74
2023/05/01 09:53:49;;;;;;;2.90;1.43;;;16.00;93.90;;;;;;4994378;28;20487;-73
2023/05/01 09:56:16;;;;;;;2.57;2.47;;;16.10;93.90;;;;;;4994768;28;20533;-74
2023/05/01 09:58:45;;;;;;;1.27;1.27;;;16.10;93.70;;;;;;4994608;28;20470;-74
2023/05/01 10:01:12;;;;;;;1.80;1.30;;;16.30;94.30;;;;;;5000395;28;21325;-75
2023/05/01 10:03:38;;;;;;;2.27;2.17;;;16.30;92.60;;;;;;5005735;28;20465;-76
2023/05/01 10:06:06;;;;;;;5.30;2.80;;;16.20;92.20;;;;;;5014196;28;20464;-75
2023/05/01 10:08:46;;;;;;;0.97;0.97;;;16.20;92.40;;;;;;5004411;28;20952;-73
2023/05/01 10:11:13;;;;;;;1.37;1.27;;;16.40;92.50;;;;;;5015112;28;20569;-74
2023/05/01 10:13:39;;;;;;;1.20;1.20;;;16.40;92.90;;;;;;5014078;28;20485;-72
2023/05/01 10:16:27;;;;;;;1.17;1.13;;;16.50;93.40;;;;;;5013453;28;20974;-74
2023/05/01 10:18:56;;;;;;;1.60;1.50;;;16.50;92.70;;;;;;5013357;28;20561;-74
2023/05/01 10:21:22;;;;;;;1.50;1.40;;;16.50;93.10;;;;;;5013254;28;20490;-74
2023/05/01 10:23:49;;;;;;;2.03;1.93;;;16.70;93.20;;;;;;5013245;28;20839;-74
2023/05/01 10:26:18;;;;;;;4.90;1.47;;;16.80;93.70;;;;;;5013311;28;21053;-74
2023/05/01 10:28:47;;;;;;;3.40;1.63;;;16.80;92.40;;;;;;5013499;28;20473;-74
2023/05/01 10:31:16;;;;;;;1.83;1.60;;;16.80;92.50;;;;;;5013358;28;20486;-74
2023/05/01 10:33:43;;;;;;;1.60;1.60;;;16.90;91.90;;;;;;5011975;28;20881;-74
2023/05/01 10:36:17;;;;;;;4.57;2.03;;;17.00;92.50;;;;;;5012338;28;20466;-74
2023/05/01 10:38:47;;;;;;;1.13;0.93;;;17.10;91.70;;;;;;5013538;28;20938;-74
2023/05/01 10:41:14;;;;;;;1.63;1.63;;;17.00;91.30;;;;;;5013754;28;20485;-74
2023/05/01 10:43:41;;;;;;;6.10;1.23;;;17.00;91.60;;;;;;5013033;28;20757;-74
2023/05/01 10:46:30;;;;;;;2.10;1.70;;;17.10;90.90;;;;;;5013228;28;20552;-74
2023/05/01 10:48:59;;;;;;;1.50;1.50;;;17.00;91.10;;;;;;5012346;28;20473;-75
2023/05/01 10:51:27;;;;;;;2.17;1.20;;;17.20;90.60;;;;;;5012778;28;20482;-75
2023/05/01 10:54:25;;;;;;;1.17;1.17;;;17.30;91.00;;;;;;5013336;28;20486;-75
2023/05/01 10:56:53;;;;;;;2.00;1.80;;;17.60;89.90;;;;;;5002053;28;20462;-74
2023/05/01 10:59:20;;;;;;;4.80;1.37;;;17.60;90.50;;;;;;5014239;28;20458;-73
2023/05/01 11:01:50;;;;;;;1.13;1.13;;;17.70;90.10;;;;;;5013245;28;20990;-73
2023/05/01 11:04:49;;;;;;;1.80;1.00;;;17.80;90.50;;;;;;5013988;28;20446;-73
2023/05/01 11:07:18;;;;;;;1.27;1.27;;;17.90;90.20;;;;;;5014250;28;20454;-73
2023/05/01 11:09:47;;;;;;;1.13;1.13;;;17.70;88.90;;;;;;5015539;28;20450;-73
2023/05/01 11:12:15;;;;;;;2.20;2.10;;;17.80;90.10;;;;;;5014868;28;20856;-73
2023/05/01 11:15:03;;;;;;;1.70;1.40;;;18.00;89.50;;;;;;5014581;28;20490;-73
2023/05/01 11:17:48;;;;;;;4.93;1.70;;;18.00;90.10;;;;;;5014746;28;20461;-74
2023/05/01 11:20:49;;;;;;;2.23;1.77;;;18.10;89.40;;;;;;5013552;28;20899;-74
2023/05/01 11:23:24;;;;;;;1.40;1.40;;;18.20;88.60;;;;;;5013714;28;20543;-75
2023/05/01 11:26:07;;;;;;;1.67;1.60;;;18.30;88.90;;;;;;5014642;28;20473;-74
2023/05/01 11:28:34;;;;;;;1.77;1.67;;;18.40;88.90;;;;;;5014654;28;20782;-74
2023/05/01 11:31:02;;;;;;;1.40;1.30;;;18.30;87.80;;;;;;5014339;28;20482;-75
2023/05/01 11:33:31;;;;;;;1.60;1.60;;;18.30;88.10;;;;;;5012846;28;20510;-74
2023/05/01 11:36:02;;;;;;;1.90;1.50;;;18.30;88.00;;;;;;5015029;28;20487;-74
2023/05/01 11:38:29;;;;;;;1.30;1.30;;;18.30;87.90;;;;;;5014909;28;20525;-73
2023/05/01 11:40:59;;;;;;;1.33;1.23;;;18.40;89.60;;;;;;5015283;28;20862;-74
2023/05/01 11:43:26;;;;;;;2.40;2.20;;;18.40;88.70;;;;;;5018593;28;20461;-75
2023/05/01 11:46:00;;;;;;;2.30;2.20;;;18.60;88.50;;;;;;5018778;28;20486;-73
2023/05/01 11:48:31;;;;;;;1.67;1.67;;;18.60;87.20;;;;;;5020232;28;20520;-73
2023/05/01 11:50:58;;;;;;;1.70;1.60;;;18.80;88.90;;;;;;5017955;28;20500;-73
2023/05/01 11:53:25;;;;;;;2.03;1.63;;;18.80;87.90;;;;;;5017527;28;20639;-73
2023/05/01 11:55:53;;;;;;;1.13;1.13;;;18.80;86.30;;;;;;5018509;28;20462;-74
2023/05/01 11:58:32;;;;;;;3.73;1.43;;;18.80;87.60;;;;;;5018828;28;20577;-73
2023/05/01 12:00:59;;;;;;;1.50;1.20;;;18.80;86.60;;;;;;5013921;28;20583;-74
2023/05/01 12:03:25;;;;;;;2.13;1.93;;;18.80;88.40;;;;;;5014876;28;20458;-74
2023/05/01 12:05:54;;;;;;;1.50;1.50;;;18.80;87.70;;;;;;5016104;28;20502;-72
2023/05/01 12:08:22;;;;;;;1.30;1.30;;;18.90;87.50;;;;;;5018500;28;20533;-74
2023/05/01 12:10:50;;;;;;;2.90;1.17;;;19.00;85.70;;;;;;5014510;28;20482;-74
2023/05/01 12:13:18;;;;;;;4.20;0.97;;;19.00;85.00;;;;;;5015036;28;20561;-73
2023/05/01 12:15:46;;;;;;;0.97;0.80;;;18.90;86.50;;;;;;5015311;28;20466;-74
2023/05/01 12:18:14;;;;;;;0.83;0.83;;;19.10;85.80;;;;;;5016915;28;20520;-73
2023/05/01 12:20:42;;;;;;;1.10;1.03;;;19.10;85.10;;;;;;5017415;28;20552;-75
2023/05/01 12:23:14;;;;;;;1.33;1.20;;;19.20;85.00;;;;;;5014790;28;20560;-74
2023/05/01 12:25:41;;;;;;;1.80;1.50;;;19.20;84.90;;;;;;5015606;28;20494;-73
2023/05/01 12:28:10;;;;;;;1.43;1.43;;;19.20;83.80;;;;;;5013577;28;20487;-73
2023/05/01 12:30:37;;;;;;;1.10;1.10;;;19.20;84.40;;;;;;5013890;28;20474;-73
2023/05/01 12:33:10;;;;;;;1.57;1.50;;;19.10;85.10;;;;;;5015245;28;20529;-73
2023/05/01 12:35:37;;;;;;;1.37;1.37;;;19.10;86.00;;;;;;5013643;28;20454;-73
2023/05/01 12:38:12;;;;;;;1.10;1.00;;;19.30;84.60;;;;;;5013311;28;20974;-74
2023/05/01 12:40:40;;;;;;;1.00;1.00;;;19.20;84.80;;;;;;5013432;28;20485;-75
2023/05/01 12:43:07;;;;;;;1.57;1.57;;;19.30;86.10;;;;;;5013404;28;20535;-73
2023/05/01 12:45:40;;;;;;;1.53;1.53;;;19.30;85.10;;;;;;5012937;28;21005;-73
2023/05/01 12:48:12;;;;;;;1.43;1.43;;;19.30;85.50;;;;;;5013433;28;20462;-75
2023/05/01 12:50:39;;;;;;;3.10;1.63;;;19.40;85.20;;;;;;5013172;28;20564;-73
2023/05/01 12:53:08;;;;;;;1.53;1.10;;;19.40;85.30;;;;;;5012339;28;20561;-73
2023/05/01 12:55:45;;;;;;;1.50;1.50;;;19.50;84.00;;;;;;5011984;28;20493;-73
2023/05/01 12:58:13;;;;;;;1.13;1.13;;;19.50;82.90;;;;;;5013526;28;20470;-73
2023/05/01 13:00:44;;;;;;;1.20;1.20;;;19.50;83.60;;;;;;5011116;28;20536;-73
2023/05/01 13:03:12;;;;;;;1.40;1.37;;;19.50;83.20;;;;;;4999722;28;20467;-72
2023/05/01 13:05:50;;;;;;;2.23;2.13;;;19.60;83.00;;;;;;4994512;28;20845;-72
2023/05/01 13:08:26;;;;;;;1.67;1.67;;;19.80;83.00;;;;;;4994050;28;20463;-73
2023/05/01 13:10:55;;;;;;;1.63;1.63;;;19.90;82.00;;;;;;4994114;28;20548;-73
2023/05/01 13:13:27;;;;;;;1.00;1.00;;;20.00;83.60;;;;;;4992718;28;20518;-73
2023/05/01 13:16:03;;;;;;;1.60;1.60;;;20.10;83.60;;;;;;4992753;28;20463;-73
2023/05/01 13:18:30;;;;;;;1.40;1.30;;;20.10;82.90;;;;;;4991522;28;20474;-73
2023/05/01 13:21:06;;;;;;;1.87;1.13;;;20.20;82.50;;;;;;4991503;28;20487;-73
2023/05/01 13:23:33;;;;;;;1.43;1.43;;;20.20;83.50;;;;;;4991693;28;20485;-72
2023/05/01 13:26:03;;;;;;;1.30;1.30;;;20.20;82.20;;;;;;4991472;28;20474;-74
2023/05/01 13:28:30;;;;;;;1.27;1.27;;;20.20;83.70;;;;;;4991550;28;20473;-73
2023/05/01 13:30:56;;;;;;;8.97;8.07;;;20.20;82.90;;;;;;4991446;28;20522;-73
2023/05/01 13:33:23;;;;;;;1.67;1.50;;;20.20;82.60;;;;;;4990136;28;20479;-72
2023/05/01 13:35:50;;;;;;;1.10;1.07;;;20.20;83.30;;;;;;4991571;28;20459;-73
2023/05/01 13:38:22;;;;;;;1.77;1.70;;;20.30;83.30;;;;;;4991222;28;20820;-73
2023/05/01 13:40:49;;;;;;;1.77;1.67;;;20.40;82.40;;;;;;4994985;28;20585;-73
2023/05/01 13:43:20;;;;;;;1.70;1.60;;;20.50;83.30;;;;;;4995475;28;20467;-70
2023/05/01 13:45:47;;;;;;;1.80;1.80;;;20.50;82.20;;;;;;4995019;28;20470;-73
2023/05/01 13:48:17;;;;;;;1.67;1.63;;;20.50;83.10;;;;;;4995047;28;20540;-73
2023/05/01 13:50:44;;;;;;;1.40;1.40;;;20.50;82.20;;;;;;4995003;28;20524;-72
2023/05/01 13:53:10;;;;;;;1.57;1.47;;;20.50;82.40;;;;;;4993973;28;20466;-73
2023/05/01 13:55:40;;;;;;;2.13;2.13;;;20.50;82.90;;;;;;4994136;28;20494;-74
2023/05/01 13:58:06;;;;;;;1.93;1.83;;;20.50;83.50;;;;;;4994627;28;20462;-74
2023/05/01 14:00:35;;;;;;;3.80;1.50;;;20.40;82.00;;;;;;4994726;28;20506;-74
2023/05/01 14:03:02;;;;;;;2.43;2.23;;;20.60;84.10;;;;;;5013483;28;20477;-74
2023/05/01 14:05:28;;;;;;;1.93;1.83;;;20.80;83.00;;;;;;5013741;28;20511;-74
2023/05/01 14:07:57;;;;;;;1.53;1.20;;;20.80;81.80;;;;;;5013840;28;20462;-74
2023/05/01 14:10:26;;;;;;;1.70;1.60;;;20.70;81.10;;;;;;5014066;28;20470;-74
2023/05/01 14:12:55;;;;;;;2.20;1.80;;;20.60;81.70;;;;;;5013316;28;20472;-74
2023/05/01 14:15:23;;;;;;;1.30;1.30;;;20.50;82.20;;;;;;5013135;28;20486;-74
2023/05/01 14:17:51;;;;;;;1.43;1.43;;;20.40;83.30;;;;;;5013272;28;20485;-74
2023/05/01 14:20:18;;;;;;;1.70;1.60;;;20.40;83.30;;;;;;5013653;28;20524;-74
2023/05/01 14:22:47;;;;;;;0.93;0.93;;;20.30;82.60;;;;;;5013224;28;20466;-74
2023/05/01 14:25:23;;;;;;;0.60;0.60;;;20.30;77.80;;;;;;5014858;28;20488;-75
2023/05/01 14:27:51;;;;;;;0.60;0.60;;;20.30;75.70;;;;;;5015418;28;20496;-74
2023/05/01 14:30:28;;;;;;;2.93;0.63;;;20.30;75.10;;;;;;5015685;28;20468;-76
2023/05/01 14:32:56;;;;;;;0.80;0.70;;;20.30;74.60;;;;;;5014904;28;20499;-73
2023/05/01 14:35:24;;;;;;;0.70;0.70;;;20.30;74.70;;;;;;5014889;28;20482;-74
2023/05/01 14:37:51;;;;;;;0.70;0.70;;;20.40;74.80;;;;;;5014484;28;20462;-73
2023/05/01 14:40:18;;;;;;;0.73;0.53;;;20.40;75.00;;;;;;5014872;28;20808;-74
2023/05/01 14:42:46;;;;;;;1.60;0.60;;;20.40;73.50;;;;;;5015172;28;20565;-75
2023/05/01 14:45:15;;;;;;;0.33;0.33;;;20.30;72.90;;;;;;5014795;28;20947;-74
2023/05/01 14:47:45;;;;;;;0.57;0.57;;;20.20;72.90;;;;;;5015063;28;20821;-73
2023/05/01 14:50:19;;;;;;;0.83;0.83;;;20.30;74.70;;;;;;5014678;28;20502;-73
2023/05/01 14:52:46;;;;;;;0.80;0.80;;;20.20;74.30;;;;;;5014902;28;20541;-74
2023/05/01 14:55:17;;;;;;;0.40;0.40;;;20.30;74.80;;;;;;5012403;28;20538;-73
2023/05/01 14:57:44;;;;;;;0.77;0.77;;;20.30;75.20;;;;;;5012836;28;20468;-73
2023/05/01 15:00:13;;;;;;;0.43;0.43;;;20.40;74.60;;;;;;5012882;28;20921;-73
2023/05/01 15:02:40;;;;;;;0.40;0.40;;;20.40;73.60;;;;;;5010214;28;20559;-73
2023/05/01 15:05:07;;;;;;;0.70;0.60;;;20.30;74.60;;;;;;5012127;28;20655;-73
2023/05/01 15:07:35;;;;;;;1.40;0.87;;;20.20;75.40;;;;;;5012326;28;20468;-70
2023/05/01 15:10:02;;;;;;;0.73;0.73;;;20.10;74.60;;;;;;5013412;28;20484;-74
2023/05/01 15:12:29;;;;;;;0.70;0.70;;;20.20;77.10;;;;;;5013448;28;20481;-74
2023/05/01 15:14:56;;;;;;;0.63;0.63;;;20.10;75.60;;;;;;5012601;28;20572;-74
2023/05/01 15:17:23;;;;;;;0.40;0.40;;;20.10;75.60;;;;;;5012903;28;20535;-73
2023/05/01 15:19:49;;;;;;;0.40;0.40;;;20.00;75.80;;;;;;5013686;28;20462;-73
2023/05/01 15:22:16;;;;;;;0.50;0.50;;;20.00;76.50;;;;;;5012964;28;20489;-73
2023/05/01 15:24:45;;;;;;;1.10;0.50;;;19.90;75.50;;;;;;5013333;28;20959;-75
2023/05/01 15:27:11;;;;;;;0.80;0.80;;;19.80;76.00;;;;;;5015451;28;20571;-75
2023/05/01 15:29:39;;;;;;;0.30;0.30;;;19.70;74.80;;;;;;5013685;28;20465;-75
2023/05/01 15:32:06;;;;;;;0.40;0.40;;;19.60;75.60;;;;;;5012650;28;20766;-75
2023/05/01 15:34:33;;;;;;;0.43;0.43;;;19.60;76.70;;;;;;5011551;28;20535;-73
2023/05/01 15:37:00;;;;;;;1.80;0.40;;;19.60;77.90;;;;;;5013120;28;20616;-75
2023/05/01 15:39:26;;;;;;;1.47;0.70;;;19.60;76.90;;;;;;5012736;28;20508;-72
2023/05/01 15:41:55;;;;;;;0.47;0.47;;;19.60;78.60;;;;;;5012895;28;20488;-75
2023/05/01 15:44:22;;;;;;;1.00;1.00;;;19.50;77.50;;;;;;5012561;28;20919;-72
2023/05/01 15:46:49;;;;;;;0.20;0.20;;;19.50;77.90;;;;;;5013899;28;20489;-72
2023/05/01 15:49:17;;;;;;;0.60;0.60;;;19.60;78.50;;;;;;5012411;28;20560;-71
2023/05/01 15:51:44;;;;;;;1.20;0.93;;;19.60;77.60;;;;;;5012707;28;20935;-73
2023/05/01 15:54:11;;;;;;;0.70;0.70;;;19.50;78.00;;;;;;5013857;28;20509;-72
2023/05/01 15:56:38;;;;;;;1.10;1.10;;;19.60;78.60;;;;;;5013772;28;20473;-73
2023/05/01 15:59:07;;;;;;;0.80;0.80;;;19.60;79.10;;;;;;5013381;28;20469;-73
2023/05/01 16:01:35;;;;;;;0.93;0.93;;;19.60;78.60;;;;;;5011852;28;20999;-74
2023/05/01 16:04:06;;;;;;;1.47;1.47;;;19.60;78.80;;;;;;5005733;28;20557;-74
2023/05/01 16:06:34;;;;;;;1.40;1.40;;;19.50;79.00;;;;;;5012759;28;20458;-72
2023/05/01 16:09:02;;;;;;;2.73;1.10;;;19.50;79.40;;;;;;5012376;28;20465;-73
2023/05/01 16:11:30;;;;;;;0.77;0.77;;;19.40;79.60;;;;;;5014111;28;20576;-73
2023/05/01 16:13:57;;;;;;;1.13;0.70;;;19.20;79.70;;;;;;5034921;23;20483;-73
2023/05/01 16:16:26;;;;;;;1.03;1.03;;;19.20;79.90;;;;;;5010879;28;20528;-73
2023/05/01 16:18:55;;;;;;;0.60;0.53;;;19.10;80.20;;;;;;5010371;28;20482;-73
2023/05/01 16:21:23;;;;;;;3.20;3.00;;;19.20;80.20;;;;;;5010356;28;20566;-73
2023/05/01 16:23:51;;;;;;;24.07;15.97;;;19.40;80.50;;;;;;5009564;28;20485;-74
2023/05/01 16:26:21;;;;;;;3.67;3.30;;;19.40;80.40;;;;;;5010199;28;20462;-72
2023/05/01 16:28:48;;;;;;;3.03;2.90;;;19.40;80.90;;;;;;5010574;28;20462;-73
2023/05/01 16:31:17;;;;;;;14.67;10.80;;;19.40;81.00;;;;;;5010491;28;20469;-73
2023/05/01 16:33:47;;;;;;;5.40;2.93;;;19.50;82.30;;;;;;5009218;28;21031;-73
2023/05/01 16:36:16;;;;;;;0.90;0.90;;;19.60;83.70;;;;;;5009547;28;21332;-73
2023/05/01 16:38:43;;;;;;;1.60;1.17;;;19.70;83.20;;;;;;5010088;28;20474;-73
2023/05/01 16:41:13;;;;;;;0.80;0.80;;;19.80;84.40;;;;;;5010166;28;20462;-74
2023/05/01 16:43:40;;;;;;;1.10;1.10;;;19.90;84.50;;;;;;5009695;28;20470;-73
2023/05/01 16:46:06;;;;;;;1.23;1.23;;;19.90;84.00;;;;;;5010183;28;20464;-73
2023/05/01 16:48:35;;;;;;;0.93;0.93;;;19.90;85.90;;;;;;5009466;28;20462;-73
2023/05/01 16:51:06;;;;;;;1.03;0.93;;;19.80;83.80;;;;;;5009664;28;20509;-72
2023/05/01 16:53:32;;;;;;;0.50;0.50;;;19.70;84.20;;;;;;5009820;28;20466;-72
2023/05/01 16:55:59;;;;;;;0.80;0.80;;;19.70;83.70;;;;;;5009623;28;20486;-72